Time;durP1;ratioP1;P1;durP2;ratioP2;P2;SDS_P1;SDS_P2;PMS_P1;PMS_P2;Temp;Humidity;BMP_temperature;BMP_pressure;BME280_temperature;BME280_humidity;BME280_pressure;Samples;Min_cycle;Max_cycle;Signal;HPM_P1;HPM_P2
2022/01/25 00:10:00;;;;;;;;;;;;;;;4.67;65.00;101323.78;5096700;28;1183;-88
2022/01/25 00:15:15;;;;;;;;;;;;;;;4.69;65.07;101328.97;5096601;28;1244;-89
2022/01/25 00:26:04;;;;;;;;;;;;;;;4.75;64.90;101331.00;5095432;28;1906;-88
2022/01/25 00:28:43;;;;;;;;;;;;;;;4.78;64.71;101331.50;5095629;28;1301;-88
2022/01/25 00:31:13;;;;;;;;;;;;;;;4.75;64.75;101331.81;5095913;28;1334;-89
2022/01/25 00:33:39;;;;;;;;;;;;;;;4.78;64.81;101325.31;5095651;28;1316;-88
2022/01/25 00:36:06;;;;;;;;;;;;;;;4.77;64.87;101329.00;5095236;28;1328;-89
2022/01/25 00:38:32;;;;;;;;;;;;;;;4.78;64.63;101320.81;5095137;28;1281;-88
2022/01/25 00:40:59;;;;;;;;;;;;;;;4.78;64.74;101315.47;5112803;28;1493;-89
2022/01/25 00:43:27;;;;;;;;;;;;;;;4.77;64.76;101305.81;5115689;28;1305;-89
2022/01/25 00:45:56;;;;;;;;;;;;;;;4.79;64.72;101305.63;5098340;28;1901;-88
2022/01/25 00:48:32;;;;;;;;;;;;;;;4.79;64.70;101308.31;5116887;28;1015;-90
2022/01/25 00:51:15;;;;;;;;;;;;;;;4.78;64.83;101303.97;5115746;28;1327;-88
2022/01/25 00:53:56;;;;;;;;;;;;;;;4.80;64.58;101306.50;5133907;27;1408;-88
2022/01/25 00:56:23;;;;;;;;;;;;;;;4.85;64.51;101312.97;5131759;27;1190;-88
2022/01/25 00:58:50;;;;;;;;;;;;;;;4.83;64.43;101311.50;5115675;28;1232;-89
2022/01/25 01:01:16;;;;;;;;;;;;;;;4.80;64.50;101317.16;5132094;27;1377;-89
2022/01/25 01:03:43;;;;;;;;;;;;;;;4.83;64.35;101316.84;5134957;27;1219;-87
2022/01/25 01:06:09;;;;;;;;;;;;;;;4.84;64.43;101319.34;5115027;28;1973;-88
2022/01/25 01:08:36;;;;;;;;;;;;;;;4.86;64.63;101324.53;5119476;27;1523;-88
2022/01/25 01:11:06;;;;;;;;;;;;;;;4.85;64.39;101320.16;5115187;28;1273;-88
2022/01/25 01:16:44;;;;;;;;;;;;;;;4.86;64.62;101322.69;5136190;27;1329;-88
2022/01/25 01:30:14;;;;;;;;;;;;;;;4.90;64.37;101323.19;5115446;28;1160;-88
2022/01/25 01:33:11;;;;;;;;;;;;;;;4.91;64.42;101324.84;5131235;27;1281;-88
2022/01/25 01:39:04;;;;;;;;;;;;;;;4.90;64.28;101340.03;5092069;27;1500;-88
2022/01/25 01:41:47;;;;;;;;;;;;;;;4.91;64.47;101341.72;5135877;27;1200;-88
2022/01/25 01:44:14;;;;;;;;;;;;;;;4.89;64.40;101345.56;5135391;27;1707;-87
2022/01/25 01:46:54;;;;;;;;;;;;;;;4.89;64.60;101346.38;5135177;28;1984;-89
2022/01/25 01:49:21;;;;;;;;;;;;;;;4.90;64.49;101345.38;5135565;28;1298;-88
2022/01/25 01:51:49;;;;;;;;;;;;;;;4.94;64.28;101343.19;5133289;28;1565;-88
2022/01/25 01:54:15;;;;;;;;;;;;;;;4.95;64.13;101351.06;5114576;28;1262;-88
2022/01/25 01:56:42;;;;;;;;;;;;;;;4.94;64.22;101346.72;5114183;28;1183;-88
2022/01/25 01:59:08;;;;;;;;;;;;;;;4.94;64.16;101349.41;5115066;28;1241;-88
2022/01/25 02:01:35;;;;;;;;;;;;;;;4.98;64.23;101358.75;5115163;28;1313;-89
2022/01/25 02:04:01;;;;;;;;;;;;;;;4.96;64.25;101360.72;5131950;28;1202;-88
2022/01/25 02:06:28;;;;;;;;;;;;;;;4.97;64.26;101359.75;5114001;28;1984;-88
2022/01/25 02:08:54;;;;;;;;;;;;;;;4.95;64.25;101367.09;5114601;28;1186;-88
2022/01/25 02:11:21;;;;;;;;;;;;;;;4.96;64.32;101365.25;5128783;28;1325;-88
2022/01/25 02:13:48;;;;;;;;;;;;;;;4.98;64.25;101372.09;5131395;28;1419;-90
2022/01/25 02:16:29;;;;;;;;;;;;;;;4.98;64.23;101361.41;5097429;28;1316;-88
2022/01/25 02:24:24;;;;;;;;;;;;;;;5.03;64.02;101366.28;5135629;28;1253;-88
2022/01/25 02:26:55;;;;;;;;;;;;;;;5.03;64.10;101378.75;5135046;28;1996;-89
2022/01/25 02:29:21;;;;;;;;;;;;;;;5.04;64.11;101380.47;5133723;28;1500;-89
2022/01/25 02:31:48;;;;;;;;;;;;;;;5.03;64.30;101376.09;5130085;28;1119;-89
2022/01/25 02:34:14;;;;;;;;;;;;;;;5.06;64.15;101370.44;5135040;28;1241;-88
2022/01/25 02:36:41;;;;;;;;;;;;;;;5.11;63.92;101368.13;5119317;28;1254;-88
2022/01/25 02:39:07;;;;;;;;;;;;;;;5.07;64.11;101372.13;5131170;28;1373;-89
2022/01/25 02:41:35;;;;;;;;;;;;;;;5.04;64.28;101370.59;5114343;28;1211;-89
2022/01/25 02:44:04;;;;;;;;;;;;;;;5.08;63.95;101379.13;5132228;27;1539;-88
2022/01/25 02:49:12;;;;;;;;;;;;;;;5.07;64.14;101380.97;5063314;28;1204;-89
2022/01/25 02:51:39;;;;;;;;;;;;;;;5.08;64.06;101374.59;5118260;28;1354;-89
2022/01/25 02:54:07;;;;;;;;;;;;;;;5.11;64.02;101386.81;5117982;28;1586;-88
2022/01/25 02:56:34;;;;;;;;;;;;;;;5.11;64.15;101386.81;5138160;27;1479;-88
2022/01/25 02:59:01;;;;;;;;;;;;;;;5.09;63.74;101391.47;5138381;27;1351;-88
2022/01/25 03:01:28;;;;;;;;;;;;;;;5.10;64.20;101391.31;5128280;27;1377;-89
2022/01/25 03:03:55;;;;;;;;;;;;;;;5.13;63.93;101395.50;5144008;27;1574;-88
2022/01/25 03:06:21;;;;;;;;;;;;;;;5.11;64.06;101381.47;5134641;27;1969;-87
2022/01/25 03:08:48;;;;;;;;;;;;;;;5.13;63.99;101384.81;5121436;27;1427;-89
2022/01/25 03:11:14;;;;;;;;;;;;;;;5.15;64.00;101382.81;5117695;28;1532;-88
2022/01/25 03:13:50;;;;;;;;;;;;;;;5.17;63.67;101372.78;5117391;28;1424;-89
2022/01/25 03:16:24;;;;;;;;;;;;;;;5.19;63.88;101376.16;5117226;28;1302;-88
2022/01/25 03:18:54;;;;;;;;;;;;;;;5.15;63.95;101367.63;5100736;28;1419;-88
2022/01/25 03:21:36;;;;;;;;;;;;;;;5.17;63.81;101365.63;5113852;27;1397;-89
2022/01/25 03:24:02;;;;;;;;;;;;;;;5.16;63.78;101363.13;5128966;27;1539;-88
2022/01/25 03:26:29;;;;;;;;;;;;;;;5.17;63.73;101359.44;5116985;28;1976;-88
2022/01/25 03:28:56;;;;;;;;;;;;;;;5.17;63.88;101362.09;5125257;27;1322;-88
2022/01/25 03:31:22;;;;;;;;;;;;;;;5.18;63.94;101367.31;5137832;27;1251;-89
2022/01/25 03:33:49;;;;;;;;;;;;;;;5.16;63.96;101358.59;5137708;27;1170;-88
2022/01/25 03:36:15;;;;;;;;;;;;;;;5.19;63.93;101373.47;5136434;27;1430;-89
2022/01/25 03:38:42;;;;;;;;;;;;;;;5.21;63.87;101374.16;5137681;27;1284;-89
2022/01/25 03:41:08;;;;;;;;;;;;;;;5.21;63.70;101374.97;5137275;27;1298;-89
2022/01/25 03:43:35;;;;;;;;;;;;;;;5.24;63.58;101380.00;5137384;27;1300;-88
2022/01/25 03:46:07;;;;;;;;;;;;;;;5.24;63.77;101381.84;5136517;27;1909;-89
2022/01/25 03:51:17;;;;;;;;;;;;;;;5.25;63.87;101378.16;5135781;27;1511;-89
2022/01/25 03:53:44;;;;;;;;;;;;;;;5.27;63.69;101378.00;5138008;27;932;-90
2022/01/25 03:56:11;;;;;;;;;;;;;;;5.24;63.81;101371.16;5137336;27;1326;-89
2022/01/25 03:58:37;;;;;;;;;;;;;;;5.29;63.72;101386.66;5138203;27;1202;-88
2022/01/25 04:01:04;;;;;;;;;;;;;;;5.30;63.65;101378.50;5118484;27;1512;-88
2022/01/25 04:03:35;;;;;;;;;;;;;;;5.29;63.62;101384.00;5135718;27;1586;-89
2022/01/25 04:06:02;;;;;;;;;;;;;;;5.29;63.89;101378.66;5129441;27;1982;-89
2022/01/25 04:08:29;;;;;;;;;;;;;;;5.30;63.80;101388.34;5137281;27;1392;-89
2022/01/25 04:10:55;;;;;;;;;;;;;;;5.32;63.72;101383.66;5136963;27;1195;-89
2022/01/25 04:13:22;;;;;;;;;;;;;;;5.29;63.64;101389.34;5136630;27;1311;-89
2022/01/25 04:15:50;;;;;;;;;;;;;;;5.28;63.74;101387.69;5123038;27;1295;-88
2022/01/25 04:18:29;;;;;;;;;;;;;;;5.29;63.54;101387.50;5128595;27;1406;-88
2022/01/25 04:21:02;;;;;;;;;;;;;;;5.31;63.94;101384.69;5137002;27;1297;-88
2022/01/25 04:26:13;;;;;;;;;;;;;;;5.31;63.65;101398.88;5136382;27;1902;-87
2022/01/25 04:28:40;;;;;;;;;;;;;;;5.30;63.87;101391.03;5137179;27;1280;-89
2022/01/25 04:31:06;;;;;;;;;;;;;;;5.30;63.84;101397.19;5135449;27;1514;-88
2022/01/25 04:33:42;;;;;;;;;;;;;;;5.29;63.92;101392.84;5136072;27;1504;-87
2022/01/25 04:36:26;;;;;;;;;;;;;;;5.31;63.98;101396.19;5136673;27;1281;-89
2022/01/25 04:49:53;;;;;;;;;;;;;;;5.29;63.92;101421.38;5139389;27;1152;-87
2022/01/25 04:52:24;;;;;;;;;;;;;;;5.33;63.82;101420.09;5138705;27;1199;-89
2022/01/25 04:54:57;;;;;;;;;;;;;;;5.33;63.96;101426.25;5132454;27;1228;-89
2022/01/25 04:57:37;;;;;;;;;;;;;;;5.33;63.96;101433.44;5119784;27;1386;-88
2022/01/25 05:00:09;;;;;;;;;;;;;;;5.32;63.89;101429.91;5120777;27;1307;-88
2022/01/25 05:02:46;;;;;;;;;;;;;;;5.31;63.78;101422.91;5115421;28;1198;-88
2022/01/25 05:05:18;;;;;;;;;;;;;;;5.32;63.96;101424.56;5113955;27;1913;-89
2022/01/25 05:07:52;;;;;;;;;;;;;;;5.32;63.86;101431.75;5135844;27;1244;-88
2022/01/25 05:10:18;;;;;;;;;;;;;;;5.30;63.85;101421.25;5134915;27;1648;-89
2022/01/25 05:12:48;;;;;;;;;;;;;;;5.29;63.95;101434.75;5112998;27;1531;-89
2022/01/25 05:15:23;;;;;;;;;;;;;;;5.31;64.02;101435.44;5133253;27;1440;-89
2022/01/25 05:18:02;;;;;;;;;;;;;;;5.34;63.92;101427.09;5132278;27;1296;-89
2022/01/25 05:23:13;;;;;;;;;;;;;;;5.28;63.88;101433.09;5115160;28;1512;-87
2022/01/25 05:25:40;;;;;;;;;;;;;;;5.29;63.98;101434.75;5122141;27;1978;-88
2022/01/25 05:28:06;;;;;;;;;;;;;;;5.31;64.01;101438.09;5135686;27;1203;-89
2022/01/25 05:30:33;;;;;;;;;;;;;;;5.28;63.94;101439.25;5135700;27;1203;-89
2022/01/25 05:33:00;;;;;;;;;;;;;;;5.30;64.23;101436.44;5135446;27;1365;-88
2022/01/25 05:35:26;;;;;;;;;;;;;;;5.28;64.10;101441.09;5135670;27;1322;-88
2022/01/25 05:37:53;;;;;;;;;;;;;;;5.29;64.16;101443.59;5131523;27;1574;-88
2022/01/25 05:40:28;;;;;;;;;;;;;;;5.27;64.27;101442.09;5116070;28;1555;-88
2022/01/25 05:45:55;;;;;;;;;;;;;;;5.24;64.27;101449.44;5133267;27;1972;-88
2022/01/25 05:48:22;;;;;;;;;;;;;;;5.23;64.17;101449.59;5135068;28;1282;-88
2022/01/25 05:50:48;;;;;;;;;;;;;;;5.24;64.37;101457.44;5133957;28;1514;-89
2022/01/25 05:53:15;;;;;;;;;;;;;;;5.26;64.14;101459.94;5121528;28;1565;-88
2022/01/25 05:55:42;;;;;;;;;;;;;;;5.28;64.13;101462.47;5114684;28;1220;-89
2022/01/25 05:58:08;;;;;;;;;;;;;;;5.24;64.18;101472.66;5114767;28;1198;-88
2022/01/25 06:00:35;;;;;;;;;;;;;;;5.24;64.09;101469.97;5114678;28;1187;-88
2022/01/25 06:03:04;;;;;;;;;;;;;;;5.22;64.11;101471.97;5114478;28;1171;-88
2022/01/25 06:05:31;;;;;;;;;;;;;;;5.22;64.13;101474.63;5125417;28;1913;-88
2022/01/25 06:07:57;;;;;;;;;;;;;;;5.21;64.17;101473.81;5134877;28;1187;-87
2022/01/25 06:10:24;;;;;;;;;;;;;;;5.22;64.42;101472.78;5134941;28;1248;-89
2022/01/25 06:12:50;;;;;;;;;;;;;;;5.21;64.38;101478.31;5134963;28;1182;-88
2022/01/25 06:15:17;;;;;;;;;;;;;;;5.21;64.35;101479.16;5135090;28;1322;-90
2022/01/25 06:17:45;;;;;;;;;;;;;;;5.18;64.32;101494.66;5136413;27;1547;-89
2022/01/25 06:20:11;;;;;;;;;;;;;;;5.19;64.31;101499.81;5119189;27;1808;-89
2022/01/25 06:22:38;;;;;;;;;;;;;;;5.21;64.03;101497.84;5139076;27;1198;-89
2022/01/25 06:25:04;;;;;;;;;;;;;;;5.19;64.21;101501.66;5138971;27;1229;-88
2022/01/25 06:27:31;;;;;;;;;;;;;;;5.18;64.36;101505.34;5135499;27;1980;-89
2022/01/25 06:29:57;;;;;;;;;;;;;;;5.17;64.25;101509.81;5135349;27;1324;-89
2022/01/25 06:32:24;;;;;;;;;;;;;;;5.16;64.63;101512.69;5134455;27;1751;-89
2022/01/25 06:34:50;;;;;;;;;;;;;;;5.16;64.33;101510.00;5118349;28;1282;-89
2022/01/25 06:37:17;;;;;;;;;;;;;;;5.16;64.65;101507.34;5118024;28;1198;-88
2022/01/25 06:39:44;;;;;;;;;;;;;;;5.14;64.32;101503.97;5124985;27;1339;-87
2022/01/25 06:42:10;;;;;;;;;;;;;;;5.15;64.43;101513.69;5118277;28;1310;-88
2022/01/25 06:44:37;;;;;;;;;;;;;;;5.13;64.57;101521.84;5128763;27;1325;-88
2022/01/25 06:47:04;;;;;;;;;;;;;;;5.14;64.27;101518.16;5138303;27;1917;-89
2022/01/25 06:49:31;;;;;;;;;;;;;;;5.12;64.38;101516.69;5138600;27;1231;-89
2022/01/25 06:51:58;;;;;;;;;;;;;;;5.11;64.33;101518.47;5138683;27;1342;-89
2022/01/25 06:54:24;;;;;;;;;;;;;;;5.11;64.49;101529.16;5138531;27;1197;-88
2022/01/25 06:56:51;;;;;;;;;;;;;;;5.12;64.32;101538.88;5138328;27;1258;-88
2022/01/25 06:59:17;;;;;;;;;;;;;;;5.11;64.46;101539.84;5130018;27;1586;-87
2022/01/25 07:01:44;;;;;;;;;;;;;;;5.13;64.54;101531.69;5118532;27;1574;-88
2022/01/25 07:04:10;;;;;;;;;;;;;;;5.10;64.54;101538.19;5117318;28;1469;-88
2022/01/25 07:06:37;;;;;;;;;;;;;;;5.11;64.49;101536.34;5123886;27;1902;-88
2022/01/25 07:09:04;;;;;;;;;;;;;;;5.11;64.34;101541.69;5117786;28;1292;-89
2022/01/25 07:11:30;;;;;;;;;;;;;;;5.11;64.35;101537.19;5123910;27;1519;-88
2022/01/25 07:13:57;;;;;;;;;;;;;;;5.11;64.55;101541.69;5117088;27;1496;-88
2022/01/25 07:16:24;;;;;;;;;;;;;;;5.10;64.46;101546.19;5117108;27;1571;-88
2022/01/25 07:18:51;;;;;;;;;;;;;;;5.09;64.42;101541.00;5117411;28;1222;-88
2022/01/25 07:21:17;;;;;;;;;;;;;;;5.11;64.59;101544.34;5117277;28;1179;-88
2022/01/25 07:23:44;;;;;;;;;;;;;;;5.09;64.57;101544.53;5118492;28;1296;-88
2022/01/25 07:26:11;;;;;;;;;;;;;;;5.10;64.40;101556.88;5122273;27;1957;-89
2022/01/25 07:28:37;;;;;;;;;;;;;;;5.10;64.50;101554.22;5137250;27;1200;-88
2022/01/25 07:31:04;;;;;;;;;;;;;;;5.09;64.54;101560.56;5137717;27;1186;-89
2022/01/25 07:33:30;;;;;;;;;;;;;;;5.11;64.28;101557.72;5137765;27;1203;-88
2022/01/25 07:35:57;;;;;;;;;;;;;;;5.10;64.32;101564.88;5122574;27;1614;-88
2022/01/25 07:38:23;;;;;;;;;;;;;;;5.10;64.37;101570.22;5117165;28;1231;-88
2022/01/25 07:40:50;;;;;;;;;;;;;;;5.11;64.32;101573.72;5111468;28;1373;-86
2022/01/25 07:43:16;;;;;;;;;;;;;;;5.11;64.31;101568.41;5117082;28;1191;-88
2022/01/25 07:45:49;;;;;;;;;;;;;;;5.13;64.26;101563.75;5104026;28;1456;-88
2022/01/25 07:48:16;;;;;;;;;;;;;;;5.12;64.17;101554.06;5096764;28;1921;-89
2022/01/25 07:50:42;;;;;;;;;;;;;;;5.10;64.27;101553.38;5096523;28;1305;-88
2022/01/25 07:53:09;;;;;;;;;;;;;;;5.09;64.23;101551.69;5096386;28;1306;-88
2022/01/25 07:55:35;;;;;;;;;;;;;;;5.09;64.27;101567.69;5096279;28;1344;-88
2022/01/25 07:58:02;;;;;;;;;;;;;;;5.09;64.40;101565.91;5096266;28;1203;-88
2022/01/25 08:00:29;;;;;;;;;;;;;;;5.11;64.23;101577.22;5096892;28;1595;-87
2022/01/25 08:02:55;;;;;;;;;;;;;;;5.09;64.40;101578.38;5079060;28;1291;-88
2022/01/25 08:05:23;;;;;;;;;;;;;;;5.11;64.32;101584.41;5079434;28;1322;-87
2022/01/25 08:07:50;;;;;;;;;;;;;;;5.11;64.14;101584.41;5079333;28;1906;-88
2022/01/25 08:10:17;;;;;;;;;;;;;;;5.10;64.39;101596.94;5079245;28;1297;-87
2022/01/25 08:12:43;;;;;;;;;;;;;;;5.12;64.46;101597.63;5078896;28;1512;-89
2022/01/25 08:15:10;;;;;;;;;;;;;;;5.15;64.04;101597.31;5097185;28;1024;-88
2022/01/25 08:17:36;;;;;;;;;;;;;;;5.15;64.13;101596.47;5078754;28;1200;-88
2022/01/25 08:20:03;;;;;;;;;;;;;;;5.15;64.12;101597.31;5078958;28;1203;-89
2022/01/25 08:22:29;;;;;;;;;;;;;;;5.16;64.16;101601.63;5078750;28;1304;-88
2022/01/25 08:24:56;;;;;;;;;;;;;;;5.13;64.21;101604.63;5086601;28;1404;-88
2022/01/25 08:27:24;;;;;;;;;;;;;;;5.15;63.98;101601.81;5078554;28;1917;-87
2022/01/25 08:29:51;;;;;;;;;;;;;;;5.14;63.89;101592.09;5078875;28;1373;-89
2022/01/25 08:32:17;;;;;;;;;;;;;;;5.15;64.06;101591.13;5079078;28;1220;-87
2022/01/25 08:34:44;;;;;;;;;;;;;;;5.15;64.12;101596.47;5089425;28;1318;-88
2022/01/25 08:37:11;;;;;;;;;;;;;;;5.19;64.03;101600.50;5116099;28;1195;-88
2022/01/25 08:39:37;;;;;;;;;;;;;;;5.17;64.19;101599.81;5105493;28;1416;-88
2022/01/25 08:42:04;;;;;;;;;;;;;;;5.17;63.95;101594.47;5088780;28;1312;-88
2022/01/25 08:44:30;;;;;;;;;;;;;;;5.17;64.14;101592.63;5098560;28;1161;-88
2022/01/25 08:46:57;;;;;;;;;;;;;;;5.19;63.95;101608.50;5095258;28;1971;-88
2022/01/25 08:49:24;;;;;;;;;;;;;;;5.18;63.94;101607.66;5078312;28;1385;-88
2022/01/25 08:51:50;;;;;;;;;;;;;;;5.19;63.91;101601.31;5079008;28;1225;-88
2022/01/25 08:54:17;;;;;;;;;;;;;;;5.19;63.88;101606.66;5082572;28;1474;-88
2022/01/25 08:56:43;;;;;;;;;;;;;;;5.20;63.99;101613.66;5096101;28;1050;-88
2022/01/25 08:59:10;;;;;;;;;;;;;;;5.20;64.01;101620.84;5078477;28;1199;-88
2022/01/25 09:01:37;;;;;;;;;;;;;;;5.17;63.96;101605.16;5078056;28;1375;-89
2022/01/25 09:04:03;;;;;;;;;;;;;;;5.20;63.95;101610.16;5078065;28;1212;-89
2022/01/25 09:06:30;;;;;;;;;;;;;;;5.20;63.96;101616.34;5077308;28;1913;-88
2022/01/25 09:08:56;;;;;;;;;;;;;;;5.26;63.72;101620.22;5077753;28;1219;-89
2022/01/25 09:11:23;;;;;;;;;;;;;;;5.22;63.75;101614.34;5077890;28;1200;-89
2022/01/25 09:13:49;;;;;;;;;;;;;;;5.24;63.96;101622.22;5077804;28;1308;-88
2022/01/25 09:16:16;;;;;;;;;;;;;;;5.22;64.28;101618.88;5077914;28;1273;-88
2022/01/25 09:18:43;;;;;;;;;;;;;;;5.23;63.89;101616.06;5105952;28;1203;-89
2022/01/25 09:21:10;;;;;;;;;;;;;;;5.22;64.02;101624.22;5096756;28;1664;-89
2022/01/25 09:23:36;;;;;;;;;;;;;;;5.22;63.94;101618.88;5098203;28;1320;-88
2022/01/25 09:26:03;;;;;;;;;;;;;;;5.28;63.92;101626.25;5096019;28;1295;-89
2022/01/25 09:28:29;;;;;;;;;;;;;;;5.24;63.74;101620.38;5097999;28;1918;-88
2022/01/25 09:30:56;;;;;;;;;;;;;;;5.21;63.87;101612.69;5098080;28;1308;-88
2022/01/25 09:33:22;;;;;;;;;;;;;;;5.27;63.88;101619.25;5095548;28;1620;-88
2022/01/25 09:35:49;;;;;;;;;;;;;;;5.24;63.80;101625.72;5107555;28;1537;-88
2022/01/25 09:38:16;;;;;;;;;;;;;;;5.23;63.93;101617.84;5097992;28;1175;-88
2022/01/25 09:40:42;;;;;;;;;;;;;;;5.25;63.84;101618.53;5097335;28;1280;-89
2022/01/25 09:43:09;;;;;;;;;;;;;;;5.25;63.84;101618.53;5097811;28;1325;-90
2022/01/25 09:45:35;;;;;;;;;;;;;;;5.24;64.00;101628.41;5097860;28;1235;-89
2022/01/25 09:48:02;;;;;;;;;;;;;;;5.23;64.19;101618.72;5108763;28;1976;-89
2022/01/25 09:50:28;;;;;;;;;;;;;;;5.25;63.99;101626.56;5135084;28;1379;-89
2022/01/25 09:52:55;;;;;;;;;;;;;;;5.23;63.99;101623.19;5134879;27;1187;-89
2022/01/25 09:55:21;;;;;;;;;;;;;;;5.24;64.17;101630.25;5126638;28;1308;-89
2022/01/25 09:57:48;;;;;;;;;;;;;;;5.28;63.77;101628.91;5131930;28;1313;-88
2022/01/25 10:00:14;;;;;;;;;;;;;;;5.25;64.20;101626.56;5132033;28;1194;-89
2022/01/25 10:02:45;;;;;;;;;;;;;;;5.24;63.98;101627.56;5114400;28;1549;-88
2022/01/25 10:05:11;;;;;;;;;;;;;;;5.27;64.17;101624.56;5114447;28;1314;-89
2022/01/25 10:07:38;;;;;;;;;;;;;;;5.27;63.88;101629.91;5114617;28;1898;-88
2022/01/25 10:10:04;;;;;;;;;;;;;;;5.29;63.97;101625.25;5114541;28;1168;-89
2022/01/25 10:12:31;;;;;;;;;;;;;;;5.29;64.08;101635.09;5126078;28;1199;-90
2022/01/25 10:14:57;;;;;;;;;;;;;;;5.28;63.99;101646.78;5130162;28;1387;-89
2022/01/25 10:17:24;;;;;;;;;;;;;;;5.25;64.12;101639.91;5125893;28;1196;-89
2022/01/25 10:19:50;;;;;;;;;;;;;;;5.30;64.02;101642.97;5118478;28;1339;-89
2022/01/25 10:22:17;;;;;;;;;;;;;;;5.28;64.22;101636.09;5135148;28;1272;-90
2022/01/25 10:24:43;;;;;;;;;;;;;;;5.27;64.15;101637.94;5128438;28;1605;-88
2022/01/25 10:27:10;;;;;;;;;;;;;;;5.28;64.08;101649.44;5135982;28;1972;-90
2022/01/25 10:29:37;;;;;;;;;;;;;;;5.29;64.10;101643.09;5124971;27;1428;-89
2022/01/25 10:32:04;;;;;;;;;;;;;;;5.29;64.09;101637.75;5132183;27;1410;-89
2022/01/25 10:34:31;;;;;;;;;;;;;;;5.27;64.17;101645.94;5138154;27;1261;-90
2022/01/25 10:37:00;;;;;;;;;;;;;;;5.29;64.25;101641.25;5138187;27;1191;-89
2022/01/25 10:39:26;;;;;;;;;;;;;;;5.31;64.23;101652.63;5137948;27;1405;-89
2022/01/25 10:41:53;;;;;;;;;;;;;;;5.30;64.41;101656.31;5138192;27;1170;-89
2022/01/25 10:44:19;;;;;;;;;;;;;;;5.31;64.32;101654.47;5137492;27;1523;-89
2022/01/25 10:46:46;;;;;;;;;;;;;;;5.33;64.11;101650.66;5138339;27;1909;-89
2022/01/25 10:49:12;;;;;;;;;;;;;;;5.32;64.17;101640.13;5137967;27;1181;-89
2022/01/25 10:51:39;;;;;;;;;;;;;;;5.31;64.34;101638.44;5138070;27;1332;-89
2022/01/25 10:54:06;;;;;;;;;;;;;;;5.31;64.27;101641.13;5129253;28;1752;-89
2022/01/25 10:56:32;;;;;;;;;;;;;;;5.32;64.36;101646.28;5125944;28;1194;-89
2022/01/25 10:58:59;;;;;;;;;;;;;;;5.32;64.52;101638.28;5117362;28;1223;-90
2022/01/25 11:01:25;;;;;;;;;;;;;;;5.30;64.38;101629.59;5126163;28;1183;-89
2022/01/25 11:03:52;;;;;;;;;;;;;;;5.31;64.53;101620.59;5118740;27;1197;-90
2022/01/25 11:06:18;;;;;;;;;;;;;;;5.32;64.42;101622.25;5121069;27;1174;-89
2022/01/25 11:08:45;;;;;;;;;;;;;;;5.32;64.42;101616.91;5120795;27;1910;-89
2022/01/25 11:11:12;;;;;;;;;;;;;;;5.34;64.63;101622.94;5121272;27;1253;-89
2022/01/25 11:13:41;;;;;;;;;;;;;;;5.35;64.61;101610.41;5120818;27;1163;-89
2022/01/25 11:16:08;;;;;;;;;;;;;;;5.35;64.58;101621.09;5138286;27;1196;-90
2022/01/25 11:18:34;;;;;;;;;;;;;;;5.34;64.67;101622.94;5136351;27;1420;-89
2022/01/25 11:21:01;;;;;;;;;;;;;;;5.35;64.84;101618.41;5121110;27;1221;-89
2022/01/25 11:23:27;;;;;;;;;;;;;;;5.35;65.05;101619.25;5120715;27;1284;-89
2022/01/25 11:25:54;;;;;;;;;;;;;;;5.35;64.79;101613.06;5124972;27;1203;-88
2022/01/25 11:28:21;;;;;;;;;;;;;;;5.35;64.70;101605.06;5135062;27;1914;-89
2022/01/25 11:30:47;;;;;;;;;;;;;;;5.37;64.68;101595.91;5123008;27;1635;-89
2022/01/25 11:33:14;;;;;;;;;;;;;;;5.39;64.75;101599.25;5120696;27;1238;-88
2022/01/25 11:35:40;;;;;;;;;;;;;;;5.40;64.66;101587.56;5120625;27;1363;-89
2022/01/25 11:38:07;;;;;;;;;;;;;;;5.41;64.77;101593.72;5120868;27;1559;-89
2022/01/25 11:40:34;;;;;;;;;;;;;;;5.43;64.92;101594.41;5120007;27;1361;-89
2022/01/25 11:43:00;;;;;;;;;;;;;;;5.42;64.86;101590.09;5127194;27;1257;-89
2022/01/25 11:45:27;;;;;;;;;;;;;;;5.43;64.76;101581.91;5120222;27;1186;-89
2022/01/25 11:47:53;;;;;;;;;;;;;;;5.42;64.77;101582.91;5126960;27;1968;-88
2022/01/25 11:50:20;;;;;;;;;;;;;;;5.43;65.12;101581.06;5134872;27;1575;-89
2022/01/25 11:52:47;;;;;;;;;;;;;;;5.44;65.00;101577.38;5137966;27;1226;-90
2022/01/25 11:55:13;;;;;;;;;;;;;;;5.45;65.07;101576.41;5119937;27;1305;-90
2022/01/25 11:57:40;;;;;;;;;;;;;;;5.47;65.00;101574.38;5120262;27;1366;-90
2022/01/25 12:00:06;;;;;;;;;;;;;;;5.46;65.16;101573.56;5120310;27;1364;-89
2022/01/25 12:02:33;;;;;;;;;;;;;;;5.50;65.12;101565.22;5119884;27;1496;-89
2022/01/25 12:04:59;;;;;;;;;;;;;;;5.49;65.18;101553.69;5121182;27;1417;-89
2022/01/25 12:07:35;;;;;;;;;;;;;;;5.50;65.06;101543.84;5120060;27;1905;-90
2022/01/25 12:10:13;;;;;;;;;;;;;;;5.50;65.33;101551.84;5120150;27;1229;-89
2022/01/25 12:12:40;;;;;;;;;;;;;;;5.51;65.33;101557.06;5119805;27;1311;-89
2022/01/25 12:15:06;;;;;;;;;;;;;;;5.51;65.11;101554.38;5127217;27;1294;-89
2022/01/25 12:17:33;;;;;;;;;;;;;;;5.53;65.26;101552.38;5128831;27;1333;-90
2022/01/25 12:19:59;;;;;;;;;;;;;;;5.54;65.24;101546.03;5140287;27;1261;-90
2022/01/25 12:22:26;;;;;;;;;;;;;;;5.54;65.34;101535.34;5140668;27;1219;-89
2022/01/25 12:25:01;;;;;;;;;;;;;;;5.55;65.15;101534.34;5140299;27;1183;-91
2022/01/25 12:27:29;;;;;;;;;;;;;;;5.54;65.45;101535.34;5140263;27;1972;-90
2022/01/25 12:29:56;;;;;;;;;;;;;;;5.57;65.23;101535.03;5140116;27;1168;-90
2022/01/25 12:32:24;;;;;;;;;;;;;;;5.56;65.36;101533.34;5134461;27;1877;-89
2022/01/25 12:34:50;;;;;;;;;;;;;;;5.57;65.56;101532.34;5119141;27;1693;-90
2022/01/25 12:37:17;;;;;;;;;;;;;;;5.58;65.26;101531.34;5119113;27;1186;-90
2022/01/25 12:39:43;;;;;;;;;;;;;;;5.65;65.23;101523.53;5118940;27;1268;-90
2022/01/25 12:42:10;;;;;;;;;;;;;;;5.61;65.44;101520.31;5135932;27;1669;-89
2022/01/25 12:44:37;;;;;;;;;;;;;;;5.61;65.33;101525.66;5139657;27;1328;-89
2022/01/25 12:47:04;;;;;;;;;;;;;;;5.63;65.66;101521.00;5139708;27;1179;-90
2022/01/25 12:49:30;;;;;;;;;;;;;;;5.65;65.59;101512.84;5139328;27;1917;-90
2022/01/25 12:51:57;;;;;;;;;;;;;;;5.63;65.62;101509.47;5124662;27;1369;-89
2022/01/25 12:54:26;;;;;;;;;;;;;;;5.67;65.56;101508.13;5153639;27;1278;-90
2022/01/25 12:56:54;;;;;;;;;;;;;;;5.66;65.65;101501.97;5139668;27;1526;-90
2022/01/25 12:59:21;;;;;;;;;;;;;;;5.66;65.51;101501.97;5118855;27;1444;-89
2022/01/25 13:01:47;;;;;;;;;;;;;;;5.68;65.79;101494.63;5118817;27;1320;-88
2022/01/25 13:04:13;;;;;;;;;;;;;;;5.68;65.85;101499.13;5118611;27;1190;-89
2022/01/25 13:06:41;;;;;;;;;;;;;;;5.70;65.89;101495.28;5118869;27;1317;-89
2022/01/25 13:09:10;;;;;;;;;;;;;;;5.70;65.58;101484.59;5118458;27;1985;-90
2022/01/25 13:11:48;;;;;;;;;;;;;;;5.72;65.78;101480.94;5118685;27;1227;-89
2022/01/25 13:14:31;;;;;;;;;;;;;;;5.74;65.76;101477.09;5118698;27;1249;-89
2022/01/25 13:16:58;;;;;;;;;;;;;;;5.75;65.76;101469.91;5118715;27;1246;-89
2022/01/25 13:19:25;;;;;;;;;;;;;;;5.75;65.93;101468.06;5118546;27;1211;-90
2022/01/25 13:21:52;;;;;;;;;;;;;;;5.77;65.91;101471.41;5118207;27;1542;-89
2022/01/25 13:24:19;;;;;;;;;;;;;;;5.77;65.88;101451.88;5118398;27;1314;-88
2022/01/25 13:26:45;;;;;;;;;;;;;;;5.79;66.00;101452.53;5118234;27;1182;-90
2022/01/25 13:31:52;;;;;;;;;;;;;;;5.82;65.96;101441.50;5121827;27;1603;-90
2022/01/25 13:34:19;;;;;;;;;;;;;;;5.83;65.94;101451.22;5138808;27;1199;-89
2022/01/25 13:36:46;;;;;;;;;;;;;;;5.85;65.74;101446.50;5138967;27;1241;-89
2022/01/25 13:39:15;;;;;;;;;;;;;;;5.87;65.88;101441.84;5139228;27;1519;-89
2022/01/25 13:41:50;;;;;;;;;;;;;;;5.87;65.91;101442.66;5135153;27;1207;-89
2022/01/25 13:47:05;;;;;;;;;;;;;;;5.89;66.03;101437.16;5115592;28;1551;-89
2022/01/25 13:49:32;;;;;;;;;;;;;;;5.94;66.24;101437.50;5114982;28;2021;-89
2022/01/25 13:51:58;;;;;;;;;;;;;;;5.92;66.24;101432.31;5126664;28;1206;-90
2022/01/25 13:54:25;;;;;;;;;;;;;;;5.93;65.89;101427.81;5135335;28;1356;-90
2022/01/25 13:56:52;;;;;;;;;;;;;;;5.94;66.13;101425.97;5131379;28;1487;-90
2022/01/25 13:59:21;;;;;;;;;;;;;;;5.96;66.26;101424.81;5135151;28;1175;-89
2022/01/25 14:01:47;;;;;;;;;;;;;;;5.97;66.14;101421.16;5131524;28;1255;-89
2022/01/25 14:04:14;;;;;;;;;;;;;;;5.99;66.04;101420.97;5114529;28;1486;-89
2022/01/25 14:06:41;;;;;;;;;;;;;;;6.00;65.92;101420.81;5120797;28;1185;-90
2022/01/25 14:09:07;;;;;;;;;;;;;;;6.01;65.90;101413.63;5114236;28;1905;-88
2022/01/25 14:11:37;;;;;;;;;;;;;;;6.03;66.06;101415.13;5115046;28;1524;-89
2022/01/25 14:22:41;;;;;;;;;;;;;;;6.06;66.34;101420.13;5114199;28;1448;-89